sensor_id;sensor_type;location;lat;lon;timestamp;pressure;altitude;pressure_sealevel;temperature;humidity
64388;BME280;50709;52.648;4.764;2023-12-07T00:01:53;102002.97;;;8.59;77.64
64388;BME280;50709;52.648;4.764;2023-12-07T00:04:18;102012.78;;;9.00;76.44
64388;BME280;50709;52.648;4.764;2023-12-07T00:06:43;101981.66;;;8.72;74.88
64388;BME280;50709;52.648;4.764;2023-12-07T00:09:09;102002.91;;;8.88;76.75
64388;BME280;50709;52.648;4.764;2023-12-07T00:11:34;102013.56;;;8.97;76.31
64388;BME280;50709;52.648;4.764;2023-12-07T00:13:59;102009.25;;;8.66;76.55
64388;BME280;50709;52.648;4.764;2023-12-07T00:16:24;101996.94;;;8.92;77.29
64388;BME280;50709;52.648;4.764;2023-12-07T00:18:50;102021.72;;;8.78;76.46
64388;BME280;50709;52.648;4.764;2023-12-07T00:21:15;101999.34;;;8.84;77.53
64388;BME280;50709;52.648;4.764;2023-12-07T00:23:41;101982.81;;;8.52;76.99
64388;BME280;50709;52.648;4.764;2023-12-07T00:26:06;101994.22;;;8.57;77.54
64388;BME280;50709;52.648;4.764;2023-12-07T00:28:32;102004.34;;;8.77;77.19
64388;BME280;50709;52.648;4.764;2023-12-07T00:30:57;102013.50;;;8.35;77.66
64388;BME280;50709;52.648;4.764;2023-12-07T00:33:22;101994.50;;;8.37;78.01
64388;BME280;50709;52.648;4.764;2023-12-07T00:35:48;102018.03;;;8.69;76.53
64388;BME280;50709;52.648;4.764;2023-12-07T00:38:14;102013.56;;;8.65;78.34
64388;BME280;50709;52.648;4.764;2023-12-07T00:40:39;101976.94;;;8.30;78.78
64388;BME280;50709;52.648;4.764;2023-12-07T00:43:06;102007.09;;;8.23;78.03
64388;BME280;50709;52.648;4.764;2023-12-07T00:45:32;102001.25;;;8.02;77.68
64388;BME280;50709;52.648;4.764;2023-12-07T00:47:57;101996.75;;;8.25;78.02
64388;BME280;50709;52.648;4.764;2023-12-07T00:50:22;102018.50;;;8.56;77.49
64388;BME280;50709;52.648;4.764;2023-12-07T00:52:48;102022.38;;;8.41;76.49
64388;BME280;50709;52.648;4.764;2023-12-07T00:55:13;101993.56;;;8.06;76.35
64388;BME280;50709;52.648;4.764;2023-12-07T00:57:39;102015.84;;;7.98;77.29
64388;BME280;50709;52.648;4.764;2023-12-07T01:00:05;102023.00;;;8.05;77.37
64388;BME280;50709;52.648;4.764;2023-12-07T01:02:31;102025.38;;;7.70;77.68
64388;BME280;50709;52.648;4.764;2023-12-07T01:04:56;102022.84;;;7.99;78.72
64388;BME280;50709;52.648;4.764;2023-12-07T01:07:22;102021.56;;;7.86;77.99
64388;BME280;50709;52.648;4.764;2023-12-07T01:09:47;102025.28;;;7.95;78.48
64388;BME280;50709;52.648;4.764;2023-12-07T01:12:12;102018.25;;;8.19;78.90
64388;BME280;50709;52.648;4.764;2023-12-07T01:14:38;102015.19;;;8.33;78.63
64388;BME280;50709;52.648;4.764;2023-12-07T01:17:03;102025.53;;;8.31;78.29
64388;BME280;50709;52.648;4.764;2023-12-07T01:19:29;102024.78;;;8.35;78.01
64388;BME280;50709;52.648;4.764;2023-12-07T01:21:54;102016.06;;;8.04;77.66
64388;BME280;50709;52.648;4.764;2023-12-07T01:24:19;102022.22;;;8.08;79.15
64388;BME280;50709;52.648;4.764;2023-12-07T01:26:45;102013.06;;;8.48;77.92
64388;BME280;50709;52.648;4.764;2023-12-07T01:29:10;102012.41;;;8.27;77.11
64388;BME280;50709;52.648;4.764;2023-12-07T01:31:36;101986.69;;;7.81;78.08
64388;BME280;50709;52.648;4.764;2023-12-07T01:34:01;102014.13;;;8.26;78.87
64388;BME280;50709;52.648;4.764;2023-12-07T01:36:26;102021.94;;;8.26;78.37
64388;BME280;50709;52.648;4.764;2023-12-07T01:38:52;102022.09;;;8.03;77.95
64388;BME280;50709;52.648;4.764;2023-12-07T01:41:17;102033.41;;;8.05;78.54
64388;BME280;50709;52.648;4.764;2023-12-07T01:43:46;102025.31;;;8.23;79.20
64388;BME280;50709;52.648;4.764;2023-12-07T01:46:13;101981.81;;;8.19;77.75
64388;BME280;50709;52.648;4.764;2023-12-07T01:48:39;102020.63;;;8.69;77.85
64388;BME280;50709;52.648;4.764;2023-12-07T01:51:05;102016.31;;;8.41;77.75
64388;BME280;50709;52.648;4.764;2023-12-07T01:53:32;102018.00;;;8.12;77.56
64388;BME280;50709;52.648;4.764;2023-12-07T01:55:58;102026.66;;;8.11;78.20
64388;BME280;50709;52.648;4.764;2023-12-07T01:58:24;102019.78;;;8.13;78.07
64388;BME280;50709;52.648;4.764;2023-12-07T02:00:49;102021.81;;;8.23;78.38
64388;BME280;50709;52.648;4.764;2023-12-07T02:03:16;102029.66;;;8.24;77.87
64388;BME280;50709;52.648;4.764;2023-12-07T02:05:43;102002.50;;;7.87;77.23
64388;BME280;50709;52.648;4.764;2023-12-07T02:08:11;102005.88;;;8.12;78.35
64388;BME280;50709;52.648;4.764;2023-12-07T02:10:36;102007.09;;;7.96;77.40
64388;BME280;50709;52.648;4.764;2023-12-07T02:13:02;102010.88;;;8.04;77.95
64388;BME280;50709;52.648;4.764;2023-12-07T02:15:28;102011.78;;;7.52;76.84
64388;BME280;50709;52.648;4.764;2023-12-07T02:18:13;102012.38;;;7.45;77.81
64388;BME280;50709;52.648;4.764;2023-12-07T02:23:32;102011.84;;;7.81;79.24
64388;BME280;50709;52.648;4.764;2023-12-07T02:26:03;102006.97;;;7.64;78.26
64388;BME280;50709;52.648;4.764;2023-12-07T02:28:28;102010.09;;;7.81;78.16
64388;BME280;50709;52.648;4.764;2023-12-07T02:30:54;102011.84;;;7.81;77.69
64388;BME280;50709;52.648;4.764;2023-12-07T02:33:19;102007.09;;;7.96;78.98
64388;BME280;50709;52.648;4.764;2023-12-07T02:35:45;102001.13;;;7.99;79.09
64388;BME280;50709;52.648;4.764;2023-12-07T02:38:11;101999.34;;;7.70;77.46
64388;BME280;50709;52.648;4.764;2023-12-07T02:40:37;102003.97;;;7.52;76.83
64388;BME280;50709;52.648;4.764;2023-12-07T02:43:03;101973.13;;;7.11;77.18
64388;BME280;50709;52.648;4.764;2023-12-07T02:45:29;102001.88;;;7.16;76.98
64388;BME280;50709;52.648;4.764;2023-12-07T02:47:57;102016.97;;;7.26;78.22
64388;BME280;50709;52.648;4.764;2023-12-07T02:50:22;101996.78;;;7.19;77.58
64388;BME280;50709;52.648;4.764;2023-12-07T02:52:48;102007.88;;;7.39;78.97
64388;BME280;50709;52.648;4.764;2023-12-07T02:55:13;102021.94;;;7.46;79.10
64388;BME280;50709;52.648;4.764;2023-12-07T02:57:38;101995.06;;;7.71;79.39
64388;BME280;50709;52.648;4.764;2023-12-07T03:00:05;102025.50;;;7.73;78.67
64388;BME280;50709;52.648;4.764;2023-12-07T03:02:37;101985.56;;;7.20;77.76
64388;BME280;50709;52.648;4.764;2023-12-07T03:05:04;102019.13;;;7.39;78.98
64388;BME280;50709;52.648;4.764;2023-12-07T03:07:29;102018.13;;;7.34;78.37
64388;BME280;50709;52.648;4.764;2023-12-07T03:09:55;101986.13;;;7.11;77.40
64388;BME280;50709;52.648;4.764;2023-12-07T03:12:20;102026.00;;;7.37;78.27
64388;BME280;50709;52.648;4.764;2023-12-07T03:14:45;102012.97;;;7.36;78.20
64388;BME280;50709;52.648;4.764;2023-12-07T03:17:11;102030.13;;;7.56;78.14
64388;BME280;50709;52.648;4.764;2023-12-07T03:19:39;102025.66;;;7.52;78.11
64388;BME280;50709;52.648;4.764;2023-12-07T03:22:05;102017.06;;;7.55;78.69
64388;BME280;50709;52.648;4.764;2023-12-07T03:24:37;102006.75;;;7.58;79.24
64388;BME280;50709;52.648;4.764;2023-12-07T03:27:03;102025.56;;;7.49;77.83
64388;BME280;50709;52.648;4.764;2023-12-07T03:29:29;102024.22;;;7.36;78.39
64388;BME280;50709;52.648;4.764;2023-12-07T03:31:57;102030.63;;;7.46;78.65
64388;BME280;50709;52.648;4.764;2023-12-07T03:34:23;102026.34;;;7.47;78.00
64388;BME280;50709;52.648;4.764;2023-12-07T03:36:48;102024.09;;;7.57;79.54
64388;BME280;50709;52.648;4.764;2023-12-07T03:39:15;102016.66;;;7.68;78.73
64388;BME280;50709;52.648;4.764;2023-12-07T03:41:41;102027.09;;;7.44;77.87
64388;BME280;50709;52.648;4.764;2023-12-07T03:44:06;102024.41;;;7.41;77.95
64388;BME280;50709;52.648;4.764;2023-12-07T03:46:32;102025.06;;;7.35;78.18
64388;BME280;50709;52.648;4.764;2023-12-07T03:48:57;102017.63;;;7.46;77.58
64388;BME280;50709;52.648;4.764;2023-12-07T03:51:23;102007.41;;;7.51;77.83
64388;BME280;50709;52.648;4.764;2023-12-07T03:53:48;101988.38;;;7.52;78.56
64388;BME280;50709;52.648;4.764;2023-12-07T03:56:24;102008.88;;;7.70;78.05
64388;BME280;50709;52.648;4.764;2023-12-07T03:58:50;102011.97;;;7.85;78.11
64388;BME280;50709;52.648;4.764;2023-12-07T04:01:15;101994.56;;;7.83;78.13
64388;BME280;50709;52.648;4.764;2023-12-07T04:03:41;101963.69;;;7.66;78.70
64388;BME280;50709;52.648;4.764;2023-12-07T04:06:06;101989.88;;;7.45;77.68
64388;BME280;50709;52.648;4.764;2023-12-07T04:08:32;101999.66;;;7.52;78.34
64388;BME280;50709;52.648;4.764;2023-12-07T04:10:58;102002.28;;;7.54;78.45
64388;BME280;50709;52.648;4.764;2023-12-07T04:13:23;102004.56;;;7.70;78.46
64388;BME280;50709;52.648;4.764;2023-12-07T04:15:49;101999.31;;;7.69;78.53
64388;BME280;50709;52.648;4.764;2023-12-07T04:18:14;102002.09;;;7.73;78.80
64388;BME280;50709;52.648;4.764;2023-12-07T04:20:39;101993.19;;;7.94;79.35
64388;BME280;50709;52.648;4.764;2023-12-07T04:23:05;102001.66;;;7.87;78.23
64388;BME280;50709;52.648;4.764;2023-12-07T04:25:30;101997.78;;;8.03;78.83
64388;BME280;50709;52.648;4.764;2023-12-07T04:27:55;102002.06;;;7.22;75.75
64388;BME280;50709;52.648;4.764;2023-12-07T04:30:21;102003.91;;;7.24;77.46
64388;BME280;50709;52.648;4.764;2023-12-07T04:32:46;102002.81;;;7.44;77.99
64388;BME280;50709;52.648;4.764;2023-12-07T04:35:11;101998.78;;;7.26;78.05
64388;BME280;50709;52.648;4.764;2023-12-07T04:37:37;101994.97;;;7.42;78.53
64388;BME280;50709;52.648;4.764;2023-12-07T04:40:03;101980.78;;;7.32;78.41
64388;BME280;50709;52.648;4.764;2023-12-07T04:42:30;101993.97;;;7.64;79.00
64388;BME280;50709;52.648;4.764;2023-12-07T04:44:55;101988.53;;;7.31;77.61
64388;BME280;50709;52.648;4.764;2023-12-07T04:47:20;101958.38;;;7.36;78.03
64388;BME280;50709;52.648;4.764;2023-12-07T04:49:46;102000.16;;;7.95;78.35
64388;BME280;50709;52.648;4.764;2023-12-07T04:52:12;102004.56;;;7.70;77.57
64388;BME280;50709;52.648;4.764;2023-12-07T04:54:37;102000.94;;;7.14;76.36
64388;BME280;50709;52.648;4.764;2023-12-07T04:57:03;102005.94;;;7.33;78.08
64388;BME280;50709;52.648;4.764;2023-12-07T04:59:29;101994.66;;;7.33;77.36
64388;BME280;50709;52.648;4.764;2023-12-07T05:01:54;101998.97;;;7.06;77.34
64388;BME280;50709;52.648;4.764;2023-12-07T05:04:20;101995.25;;;7.00;77.79
64388;BME280;50709;52.648;4.764;2023-12-07T05:06:45;101993.00;;;7.09;78.76
64388;BME280;50709;52.648;4.764;2023-12-07T05:09:10;102008.44;;;6.80;76.11
64388;BME280;50709;52.648;4.764;2023-12-07T05:11:36;102003.78;;;6.96;78.22
64388;BME280;50709;52.648;4.764;2023-12-07T05:14:02;101994.44;;;6.77;77.15
64388;BME280;50709;52.648;4.764;2023-12-07T05:16:29;101957.38;;;6.81;78.44
64388;BME280;50709;52.648;4.764;2023-12-07T05:18:54;102012.06;;;7.35;79.16
64388;BME280;50709;52.648;4.764;2023-12-07T05:21:19;101989.84;;;6.94;77.60
64388;BME280;50709;52.648;4.764;2023-12-07T05:23:45;101987.56;;;6.79;76.98
64388;BME280;50709;52.648;4.764;2023-12-07T05:26:10;101989.25;;;6.77;78.00
64388;BME280;50709;52.648;4.764;2023-12-07T05:28:36;101952.19;;;6.56;78.53
64388;BME280;50709;52.648;4.764;2023-12-07T05:31:01;101967.13;;;6.88;77.92
64388;BME280;50709;52.648;4.764;2023-12-07T05:33:27;101977.44;;;6.85;77.31
64388;BME280;50709;52.648;4.764;2023-12-07T05:35:52;101980.78;;;6.58;76.78
64388;BME280;50709;52.648;4.764;2023-12-07T05:38:18;101964.78;;;6.70;78.06
64388;BME280;50709;52.648;4.764;2023-12-07T05:40:43;101971.34;;;6.60;77.42
64388;BME280;50709;52.648;4.764;2023-12-07T05:43:09;101983.97;;;6.73;76.51
64388;BME280;50709;52.648;4.764;2023-12-07T05:45:34;101991.56;;;6.93;78.61
64388;BME280;50709;52.648;4.764;2023-12-07T05:47:59;101977.94;;;7.00;77.07
64388;BME280;50709;52.648;4.764;2023-12-07T05:50:24;101988.91;;;7.41;78.59
64388;BME280;50709;52.648;4.764;2023-12-07T05:52:50;101973.28;;;6.90;76.19
64388;BME280;50709;52.648;4.764;2023-12-07T05:55:15;101987.94;;;7.39;77.76
64388;BME280;50709;52.648;4.764;2023-12-07T05:57:41;101936.03;;;6.65;76.08
64388;BME280;50709;52.648;4.764;2023-12-07T06:00:06;101966.75;;;7.01;77.40
64388;BME280;50709;52.648;4.764;2023-12-07T06:02:35;101953.03;;;7.05;76.74
64388;BME280;50709;52.648;4.764;2023-12-07T06:05:01;101984.00;;;7.25;77.01
64388;BME280;50709;52.648;4.764;2023-12-07T06:07:29;101957.97;;;6.98;76.51
64388;BME280;50709;52.648;4.764;2023-12-07T06:09:54;101974.16;;;7.42;77.60
64388;BME280;50709;52.648;4.764;2023-12-07T06:12:20;101984.53;;;7.68;78.20
64388;BME280;50709;52.648;4.764;2023-12-07T06:14:50;101996.78;;;7.19;74.29
64388;BME280;50709;52.648;4.764;2023-12-07T06:17:15;101961.47;;;8.06;73.64
64388;BME280;50709;52.648;4.764;2023-12-07T06:19:41;101989.81;;;7.44;75.08
64388;BME280;50709;52.648;4.764;2023-12-07T06:22:07;101999.06;;;7.10;75.32
64388;BME280;50709;52.648;4.764;2023-12-07T06:24:33;102002.88;;;7.71;75.18
64388;BME280;50709;52.648;4.764;2023-12-07T06:26:59;101998.88;;;7.55;74.25
64388;BME280;50709;52.648;4.764;2023-12-07T06:29:27;102006.03;;;7.62;76.16
64388;BME280;50709;52.648;4.764;2023-12-07T06:31:52;101987.94;;;8.21;74.10
64388;BME280;50709;52.648;4.764;2023-12-07T06:34:18;101997.38;;;8.18;73.38
64388;BME280;50709;52.648;4.764;2023-12-07T06:36:43;101997.22;;;7.84;74.33
64388;BME280;50709;52.648;4.764;2023-12-07T06:39:09;101996.56;;;7.91;75.35
64388;BME280;50709;52.648;4.764;2023-12-07T06:41:34;101955.94;;;8.24;73.32
64388;BME280;50709;52.648;4.764;2023-12-07T06:43:59;101953.31;;;8.53;73.31
64388;BME280;50709;52.648;4.764;2023-12-07T06:46:25;101973.75;;;8.40;73.00
64388;BME280;50709;52.648;4.764;2023-12-07T06:48:50;101980.97;;;8.20;72.45
64388;BME280;50709;52.648;4.764;2023-12-07T06:51:15;101946.94;;;8.13;71.88
64388;BME280;50709;52.648;4.764;2023-12-07T06:53:41;101979.72;;;8.36;72.15
64388;BME280;50709;52.648;4.764;2023-12-07T06:56:07;101970.69;;;8.54;72.50
64388;BME280;50709;52.648;4.764;2023-12-07T06:58:33;101974.47;;;8.35;70.86
64388;BME280;50709;52.648;4.764;2023-12-07T07:00:59;101968.69;;;9.07;70.97
64388;BME280;50709;52.648;4.764;2023-12-07T07:03:24;101968.91;;;8.22;71.10
64388;BME280;50709;52.648;4.764;2023-12-07T07:05:50;101959.78;;;8.08;71.20
64388;BME280;50709;52.648;4.764;2023-12-07T07:08:15;101916.91;;;7.95;70.92
64388;BME280;50709;52.648;4.764;2023-12-07T07:10:41;101980.63;;;7.81;72.84
64388;BME280;50709;52.648;4.764;2023-12-07T07:13:07;101981.13;;;7.43;72.18
64388;BME280;50709;52.648;4.764;2023-12-07T07:15:33;101972.38;;;7.94;71.88
64388;BME280;50709;52.648;4.764;2023-12-07T07:17:58;101968.06;;;8.23;72.31
64388;BME280;50709;52.648;4.764;2023-12-07T07:20:25;101967.19;;;7.94;71.21
64388;BME280;50709;52.648;4.764;2023-12-07T07:22:50;101960.81;;;8.13;71.63
64388;BME280;50709;52.648;4.764;2023-12-07T07:25:16;101941.28;;;7.99;73.56
64388;BME280;50709;52.648;4.764;2023-12-07T07:27:44;101957.66;;;8.23;72.03
64388;BME280;50709;52.648;4.764;2023-12-07T07:30:11;101966.03;;;8.72;70.93
64388;BME280;50709;52.648;4.764;2023-12-07T07:32:36;101973.25;;;8.83;71.56
64388;BME280;50709;52.648;4.764;2023-12-07T07:35:02;101949.50;;;8.41;71.77
64388;BME280;50709;52.648;4.764;2023-12-07T07:37:27;101977.53;;;8.81;69.51
64388;BME280;50709;52.648;4.764;2023-12-07T07:39:52;101973.03;;;8.16;70.21
64388;BME280;50709;52.648;4.764;2023-12-07T07:42:18;101957.69;;;7.96;71.67
64388;BME280;50709;52.648;4.764;2023-12-07T07:44:43;101974.09;;;8.51;71.19
64388;BME280;50709;52.648;4.764;2023-12-07T07:47:09;101964.69;;;8.26;69.88
64388;BME280;50709;52.648;4.764;2023-12-07T07:49:34;101963.25;;;8.98;70.98
64388;BME280;50709;52.648;4.764;2023-12-07T07:51:59;101984.00;;;8.95;70.44
64388;BME280;50709;52.648;4.764;2023-12-07T07:54:25;101962.50;;;8.41;71.69
64388;BME280;50709;52.648;4.764;2023-12-07T07:56:51;101959.75;;;8.06;69.63
64388;BME280;50709;52.648;4.764;2023-12-07T07:59:16;101982.81;;;8.52;73.17
64388;BME280;50709;52.648;4.764;2023-12-07T08:01:41;101974.06;;;8.50;72.35
64388;BME280;50709;52.648;4.764;2023-12-07T08:04:07;101969.81;;;8.24;73.17
64388;BME280;50709;52.648;4.764;2023-12-07T08:06:32;101976.94;;;8.01;72.32
64388;BME280;50709;52.648;4.764;2023-12-07T08:08:58;101953.22;;;7.92;73.00
64388;BME280;50709;52.648;4.764;2023-12-07T08:11:23;101962.16;;;7.73;72.77
64388;BME280;50709;52.648;4.764;2023-12-07T08:13:48;101976.72;;;7.68;70.81
64388;BME280;50709;52.648;4.764;2023-12-07T08:16:15;101969.84;;;7.68;72.63
64388;BME280;50709;52.648;4.764;2023-12-07T08:18:40;101967.66;;;7.55;73.82
64388;BME280;50709;52.648;4.764;2023-12-07T08:21:06;101967.25;;;7.68;74.46
64388;BME280;50709;52.648;4.764;2023-12-07T08:23:33;101968.19;;;7.19;73.32
64388;BME280;50709;52.648;4.764;2023-12-07T08:25:59;101978.69;;;6.72;70.99
64388;BME280;50709;52.648;4.764;2023-12-07T08:28:24;101978.28;;;6.61;73.55
64388;BME280;50709;52.648;4.764;2023-12-07T08:30:50;101964.25;;;6.32;72.65
64388;BME280;50709;52.648;4.764;2023-12-07T08:33:15;101978.75;;;6.73;76.04
64388;BME280;50709;52.648;4.764;2023-12-07T08:35:40;101983.03;;;6.49;74.80
64388;BME280;50709;52.648;4.764;2023-12-07T08:38:06;101985.38;;;6.65;76.34
64388;BME280;50709;52.648;4.764;2023-12-07T08:40:31;101975.56;;;6.34;75.41
64388;BME280;50709;52.648;4.764;2023-12-07T08:42:57;101989.97;;;6.26;77.81
64388;BME280;50709;52.648;4.764;2023-12-07T08:45:22;101967.25;;;6.43;76.78
64388;BME280;50709;52.648;4.764;2023-12-07T08:47:49;101951.41;;;6.35;76.32
64388;BME280;50709;52.648;4.764;2023-12-07T08:50:14;101970.19;;;6.52;76.89
64388;BME280;50709;52.648;4.764;2023-12-07T08:52:40;101988.13;;;6.46;75.17
64388;BME280;50709;52.648;4.764;2023-12-07T08:55:05;101980.69;;;6.79;77.79
64388;BME280;50709;52.648;4.764;2023-12-07T08:57:31;101938.03;;;6.48;76.89
64388;BME280;50709;52.648;4.764;2023-12-07T08:59:56;101973.28;;;6.19;76.22
64388;BME280;50709;52.648;4.764;2023-12-07T09:02:23;101971.81;;;5.39;75.56
64388;BME280;50709;52.648;4.764;2023-12-07T09:04:48;101957.72;;;5.33;77.86
64388;BME280;50709;52.648;4.764;2023-12-07T09:07:16;101954.59;;;6.28;81.58
64388;BME280;50709;52.648;4.764;2023-12-07T09:09:42;101949.34;;;8.06;81.34
64388;BME280;50709;52.648;4.764;2023-12-07T09:12:12;101947.22;;;6.16;75.55
64388;BME280;50709;52.648;4.764;2023-12-07T09:14:38;101942.19;;;6.20;78.43
64388;BME280;50709;52.648;4.764;2023-12-07T09:17:03;101950.72;;;5.30;76.98
64388;BME280;50709;52.648;4.764;2023-12-07T09:19:28;101942.97;;;5.95;79.99
64388;BME280;50709;52.648;4.764;2023-12-07T09:21:54;101941.22;;;5.10;76.19
64388;BME280;50709;52.648;4.764;2023-12-07T09:24:19;101954.16;;;4.69;77.61
64388;BME280;50709;52.648;4.764;2023-12-07T09:26:46;101944.84;;;4.33;77.23
64388;BME280;50709;52.648;4.764;2023-12-07T09:29:11;101944.28;;;5.42;80.32
64388;BME280;50709;52.648;4.764;2023-12-07T09:31:37;101969.22;;;5.39;79.26
64388;BME280;50709;52.648;4.764;2023-12-07T09:34:02;101935.38;;;5.79;80.60
64388;BME280;50709;52.648;4.764;2023-12-07T09:36:27;101955.97;;;5.32;79.41
64388;BME280;50709;52.648;4.764;2023-12-07T09:38:53;101963.13;;;5.37;79.18
64388;BME280;50709;52.648;4.764;2023-12-07T09:41:19;101990.13;;;5.23;79.36
64388;BME280;50709;52.648;4.764;2023-12-07T09:43:45;101963.59;;;5.08;80.28
64388;BME280;50709;52.648;4.764;2023-12-07T09:46:12;101980.03;;;4.69;80.44
64388;BME280;50709;52.648;4.764;2023-12-07T09:48:41;101969.13;;;4.76;80.62
64388;BME280;50709;52.648;4.764;2023-12-07T09:51:08;101963.78;;;5.12;81.43
64388;BME280;50709;52.648;4.764;2023-12-07T09:53:34;101967.53;;;4.99;79.77
64388;BME280;50709;52.648;4.764;2023-12-07T09:56:00;101939.91;;;4.79;79.91
64388;BME280;50709;52.648;4.764;2023-12-07T09:58:26;101967.53;;;5.19;81.21
64388;BME280;50709;52.648;4.764;2023-12-07T10:00:51;101971.66;;;4.75;79.45
64388;BME280;50709;52.648;4.764;2023-12-07T10:03:21;101972.22;;;5.70;80.76
64388;BME280;50709;52.648;4.764;2023-12-07T10:05:58;101971.38;;;4.88;78.64
64388;BME280;50709;52.648;4.764;2023-12-07T10:08:29;101961.81;;;5.07;80.14
64388;BME280;50709;52.648;4.764;2023-12-07T10:11:09;101949.34;;;5.17;81.68
64388;BME280;50709;52.648;4.764;2023-12-07T10:13:36;101941.16;;;4.48;79.55
64388;BME280;50709;52.648;4.764;2023-12-07T10:16:12;101943.03;;;4.13;80.51
64388;BME280;50709;52.648;4.764;2023-12-07T10:18:38;101933.81;;;4.98;81.54
64388;BME280;50709;52.648;4.764;2023-12-07T10:21:06;101939.47;;;5.09;80.66
64388;BME280;50709;52.648;4.764;2023-12-07T10:23:33;101937.38;;;5.00;79.80
64388;BME280;50709;52.648;4.764;2023-12-07T10:25:58;101938.41;;;5.25;79.94
64388;BME280;50709;52.648;4.764;2023-12-07T10:28:25;101884.81;;;4.81;79.58
64388;BME280;50709;52.648;4.764;2023-12-07T10:30:50;101932.44;;;4.85;80.57
64388;BME280;50709;52.648;4.764;2023-12-07T10:33:16;101934.81;;;5.21;81.09
64388;BME280;50709;52.648;4.764;2023-12-07T10:35:42;101912.44;;;5.23;80.43
64388;BME280;50709;52.648;4.764;2023-12-07T10:38:09;101890.50;;;4.53;80.39
64388;BME280;50709;52.648;4.764;2023-12-07T10:40:34;101909.31;;;4.89;80.36
64388;BME280;50709;52.648;4.764;2023-12-07T10:43:04;101916.97;;;4.86;81.01
64388;BME280;50709;52.648;4.764;2023-12-07T10:45:30;101907.75;;;5.35;81.88
64388;BME280;50709;52.648;4.764;2023-12-07T10:48:03;101903.69;;;5.42;82.31
64388;BME280;50709;52.648;4.764;2023-12-07T10:50:42;101863.97;;;5.87;80.51
64388;BME280;50709;52.648;4.764;2023-12-07T10:53:18;101899.81;;;5.97;79.94
64388;BME280;50709;52.648;4.764;2023-12-07T10:55:47;101887.78;;;5.54;80.63
64388;BME280;50709;52.648;4.764;2023-12-07T10:58:16;101885.03;;;5.28;79.69
64388;BME280;50709;52.648;4.764;2023-12-07T11:00:43;101898.31;;;4.95;81.09
64388;BME280;50709;52.648;4.764;2023-12-07T11:03:14;101885.19;;;5.33;82.42
64388;BME280;50709;52.648;4.764;2023-12-07T11:05:42;101885.06;;;5.73;80.24
64388;BME280;50709;52.648;4.764;2023-12-07T11:08:09;101879.84;;;5.49;79.99
64388;BME280;50709;52.648;4.764;2023-12-07T11:13:29;101877.47;;;5.78;78.90
64388;BME280;50709;52.648;4.764;2023-12-07T11:15:56;101836.50;;;5.24;80.86
64388;BME280;50709;52.648;4.764;2023-12-07T11:18:25;101863.25;;;5.91;79.52
64388;BME280;50709;52.648;4.764;2023-12-07T11:20:50;101857.22;;;5.03;77.49
64388;BME280;50709;52.648;4.764;2023-12-07T11:23:18;101859.00;;;5.25;78.55
64388;BME280;50709;52.648;4.764;2023-12-07T11:25:46;101811.47;;;4.81;78.23
64388;BME280;50709;52.648;4.764;2023-12-07T11:28:13;101820.03;;;5.45;78.38
64388;BME280;50709;52.648;4.764;2023-12-07T11:30:42;101838.19;;;5.01;78.03
64388;BME280;50709;52.648;4.764;2023-12-07T11:33:08;101834.47;;;5.38;78.68
64388;BME280;50709;52.648;4.764;2023-12-07T11:36:07;101841.13;;;5.54;79.55
64388;BME280;50709;52.648;4.764;2023-12-07T11:38:33;101834.56;;;4.97;78.80
64388;BME280;50709;52.648;4.764;2023-12-07T11:40:59;101796.78;;;5.69;79.94
64388;BME280;50709;52.648;4.764;2023-12-07T11:46:06;101818.44;;;5.04;80.63
64388;BME280;50709;52.648;4.764;2023-12-07T11:48:32;101805.91;;;5.59;77.70
64388;BME280;50709;52.648;4.764;2023-12-07T11:51:02;101828.75;;;5.69;78.48
64388;BME280;50709;52.648;4.764;2023-12-07T11:53:29;101838.03;;;6.10;78.76
64388;BME280;50709;52.648;4.764;2023-12-07T11:55:58;101813.31;;;5.95;79.99
64388;BME280;50709;52.648;4.764;2023-12-07T11:58:25;101786.56;;;5.73;74.94
64388;BME280;50709;52.648;4.764;2023-12-07T12:00:52;101841.75;;;5.94;75.69
64388;BME280;50709;52.648;4.764;2023-12-07T12:03:18;101832.81;;;6.32;78.04
64388;BME280;50709;52.648;4.764;2023-12-07T12:05:45;101773.75;;;5.77;78.10
64388;BME280;50709;52.648;4.764;2023-12-07T12:08:11;101815.06;;;5.73;76.20
64388;BME280;50709;52.648;4.764;2023-12-07T12:10:40;101772.19;;;5.35;76.30
64388;BME280;50709;52.648;4.764;2023-12-07T12:13:06;101790.25;;;6.03;78.80
64388;BME280;50709;52.648;4.764;2023-12-07T12:15:31;101790.78;;;6.17;76.55
64388;BME280;50709;52.648;4.764;2023-12-07T12:17:58;101747.59;;;5.48;77.15
64388;BME280;50709;52.648;4.764;2023-12-07T12:20:27;101731.75;;;5.87;78.79
64388;BME280;50709;52.648;4.764;2023-12-07T12:22:53;101771.63;;;5.44;74.22
64388;BME280;50709;52.648;4.764;2023-12-07T12:25:23;101762.91;;;5.64;77.22
64388;BME280;50709;52.648;4.764;2023-12-07T12:28:09;101756.84;;;5.64;78.78
64388;BME280;50709;52.648;4.764;2023-12-07T12:30:35;101757.13;;;5.96;78.61
64388;BME280;50709;52.648;4.764;2023-12-07T12:33:00;101758.22;;;5.78;76.45
64388;BME280;50709;52.648;4.764;2023-12-07T12:35:26;101740.72;;;5.48;76.95
64388;BME280;50709;52.648;4.764;2023-12-07T12:37:51;101741.91;;;5.11;77.97
64388;BME280;50709;52.648;4.764;2023-12-07T12:40:19;101700.88;;;5.22;77.13
64388;BME280;50709;52.648;4.764;2023-12-07T12:42:51;101738.84;;;5.21;77.16
64388;BME280;50709;52.648;4.764;2023-12-07T12:45:18;101719.66;;;5.39;79.72
64388;BME280;50709;52.648;4.764;2023-12-07T12:47:45;101705.09;;;5.18;78.07
64388;BME280;50709;52.648;4.764;2023-12-07T12:50:12;101723.72;;;5.10;78.87
64388;BME280;50709;52.648;4.764;2023-12-07T12:52:39;101731.50;;;5.32;76.85
64388;BME280;50709;52.648;4.764;2023-12-07T12:55:09;101725.72;;;5.17;77.13
64388;BME280;50709;52.648;4.764;2023-12-07T12:57:35;101717.97;;;4.73;77.30
64388;BME280;50709;52.648;4.764;2023-12-07T13:00:01;101714.50;;;5.63;80.40
64388;BME280;50709;52.648;4.764;2023-12-07T13:02:27;101714.41;;;5.37;76.69
64388;BME280;50709;52.648;4.764;2023-12-07T13:04:52;101689.47;;;4.71;77.45